Hlavní strana
METAR-TAF:

METAR-TAF

Letiště :

Kemi, Finsko

zeměpisná šířka: 65-47N, zeměpisná délka: 024-35E, výška: 15 m

Aktuální stav počasí

Zpráva byla vytvořena před 39 minutami, v 02:50 UTC
Severní vítr 6 kt
Teplota -1°C
Vlhkost vzduchu 100%
Tlak 1010 hPa
Viditelnost 10 km a více
Zataženo ve výšce 400 ft

METAR: EFKE 140250Z AUTO 35006KT 9999 OVC004 M01/M01 Q1010

Čas: 05:29 (03:29 UTC)

Předpověď počasí

Zpráva byla vytvořena před 7 hodinami a 1 minutami, v 20:28 UTC
Předpověď platná od 13 v 21 UTC do 13 v 24 UTC
Severoseverozápadní vítr 2 kt
Viditelnost: 1100 m
ve výšce 200 ft
kouřmo
Dočasný
od 13 v 21 UTC do 13 v 24 UTC
Viditelnost 10 km a více
Oblačno až skoro zataženo ve výšce 500 ft

TAF: EFKE 132028Z 1321/1324 33002KT 1100 BR VV002 TEMPO 1321/1324 9999 NSW BKN005

Stav a předpovědi počasí z více než 4 000 letišť (zprávy METAR a TAF).

Červené a žluté tečky na mapě představují dostupné meteorologické stanice.

Když kurzor umístíte na tečku, zobrazí se název stanice.

Pak kliknutím zobrazíte stav a předpověď počasí.

Chcete-li změnit mapu, kliknutím na zelené tlačítko se znaménkem +mapu přiblížíte, kliknutím na zelené tlačítko se znaménkem – mapu oddálíte a kliknutím na zelené šipky přejdete na sousední mapy.


METAR-TAF: